Time;durP1;ratioP1;P1;durP2;ratioP2;P2;SDS_P1;SDS_P2;PMS_P1;PMS_P2;Temp;Humidity;BMP_temperature;BMP_pressure;BME280_temperature;BME280_humidity;BME280_pressure;Samples;Min_cycle;Max_cycle;Signal;HPM_P1;HPM_P2
2024/03/05 00:00:09;;;;;;;1.98;1.88;;;7.70;1.00;;;;;;4958960;28;20481;-76
2024/03/05 00:02:43;;;;;;;3.10;2.30;;;7.70;1.00;;;;;;4972224;28;20063;-76
2024/03/05 00:05:12;;;;;;;;;;;7.70;1.00;;;;;;4963370;28;20039;-76
2024/03/05 00:07:39;;;;;;;2.85;2.58;;;7.70;1.00;;;;;;4960237;28;19917;-76
2024/03/05 00:10:07;;;;;;;1.33;1.20;;;7.60;1.00;;;;;;4963037;28;20365;-76
2024/03/05 00:12:33;;;;;;;1.33;1.23;;;7.60;1.00;;;;;;4961912;28;20050;-76
2024/03/05 00:15:00;;;;;;;4.00;2.20;;;7.60;1.00;;;;;;4965286;28;20043;-76
2024/03/05 00:17:26;;;;;;;1.40;1.30;;;7.60;1.00;;;;;;4941909;29;20040;-76
2024/03/05 00:19:53;;;;;;;4.60;3.75;;;7.60;1.00;;;;;;4959315;28;20041;-75
2024/03/05 00:22:20;;;;;;;3.05;1.98;;;7.50;1.00;;;;;;4966836;28;20037;-74
2024/03/05 00:24:46;;;;;;;1.58;1.48;;;7.50;1.00;;;;;;4964574;28;20023;-75
2024/03/05 00:27:13;;;;;;;1.33;1.23;;;7.50;1.00;;;;;;4961081;28;20431;-75
2024/03/05 00:29:43;;;;;;;2.05;1.83;;;7.50;1.00;;;;;;4962102;28;20034;-75
2024/03/05 00:32:09;;;;;;;4.45;2.35;;;7.50;1.00;;;;;;4961399;28;20035;-75
2024/03/05 00:34:35;;;;;;;4.68;2.63;;;7.50;1.00;;;;;;4964426;28;20088;-75
2024/03/05 00:37:02;;;;;;;1.02;0.95;;;7.50;1.00;;;;;;4965301;28;20395;-75
2024/03/05 00:39:28;;;;;;;5.32;2.60;;;7.40;1.00;;;;;;4966691;28;20035;-76
2024/03/05 00:41:54;;;;;;;1.88;1.77;;;7.50;1.00;;;;;;4957931;28;20031;-76
2024/03/05 00:44:20;;;;;;;2.67;1.98;;;7.40;1.00;;;;;;4954056;28;20523;-75
2024/03/05 00:46:46;;;;;;;2.20;2.05;;;7.50;1.00;;;;;;4967770;28;20026;-75
2024/03/05 00:49:12;;;;;;;1.45;1.35;;;7.50;1.00;;;;;;4948909;28;20049;-75
2024/03/05 00:51:38;;;;;;;2.35;2.22;;;7.50;1.00;;;;;;4966095;28;20027;-75
2024/03/05 00:54:05;;;;;;;2.13;2.03;;;7.50;1.00;;;;;;4964126;28;20047;-75
2024/03/05 00:56:31;;;;;;;4.20;3.10;;;7.50;1.00;;;;;;4965228;28;20033;-75
2024/03/05 00:58:57;;;;;;;3.50;2.33;;;7.50;10.90;;;;;;4959360;28;20396;-75
2024/03/05 01:01:23;;;;;;;1.67;1.48;;;7.40;20.50;;;;;;4955330;28;20046;-75
2024/03/05 01:03:49;;;;;;;4.95;2.35;;;7.40;35.50;;;;;;4967925;28;20039;-74
2024/03/05 01:06:15;;;;;;;2.38;2.15;;;7.40;43.30;;;;;;4967835;28;20092;-75
2024/03/05 01:08:42;;;;;;;3.22;2.70;;;7.40;60.50;;;;;;4970492;28;20083;-75
2024/03/05 01:11:08;;;;;;;4.03;3.60;;;7.50;72.30;;;;;;4967876;28;20046;-75
2024/03/05 01:13:34;;;;;;;12.20;3.92;;;7.50;87.00;;;;;;4962888;28;21005;-76
2024/03/05 01:16:01;;;;;;;1.50;1.40;;;7.50;90.00;;;;;;4962277;28;20032;-75
2024/03/05 01:18:27;;;;;;;0.77;0.75;;;7.50;91.30;;;;;;4965980;28;20027;-76
2024/03/05 01:20:53;;;;;;;5.05;2.95;;;7.50;97.20;;;;;;4964006;28;20050;-75
2024/03/05 01:23:20;;;;;;;6.93;6.28;;;7.50;99.90;;;;;;4957457;28;20376;-75
2024/03/05 01:25:46;;;;;;;2.47;1.60;;;7.50;99.90;;;;;;4967281;28;20039;-75
2024/03/05 01:28:15;;;;;;;6.75;2.17;;;7.50;99.70;;;;;;4964890;28;20396;-75
2024/03/05 01:30:41;;;;;;;4.13;2.97;;;7.50;93.50;;;;;;4945158;28;20047;-75
2024/03/05 01:33:10;;;;;;;1.85;1.35;;;7.40;80.40;;;;;;4956843;28;20043;-75
2024/03/05 01:35:37;;;;;;;11.70;2.40;;;7.40;70.30;;;;;;4966652;28;20400;-76
2024/03/05 01:38:03;;;;;;;2.13;2.03;;;7.50;72.10;;;;;;4954135;28;20488;-76
2024/03/05 01:40:29;;;;;;;2.00;1.88;;;7.50;80.00;;;;;;4962624;28;20038;-75
2024/03/05 01:42:57;;;;;;;7.00;4.78;;;7.50;65.00;;;;;;4968732;28;20051;-74
2024/03/05 01:45:23;;;;;;;3.72;3.05;;;7.50;55.30;;;;;;4964325;28;20027;-75
2024/03/05 01:47:50;;;;;;;1.45;1.35;;;7.50;49.30;;;;;;4944421;29;20039;-76
2024/03/05 01:50:16;;;;;;;4.57;3.38;;;7.50;46.60;;;;;;4970997;28;20042;-75
2024/03/05 01:52:43;;;;;;;6.50;2.17;;;7.60;37.90;;;;;;4951598;28;20046;-74
2024/03/05 01:55:14;;;;;;;2.25;2.05;;;7.60;27.70;;;;;;4965523;28;20428;-74
2024/03/05 01:57:43;;;;;;;2.40;2.20;;;7.60;21.50;;;;;;4961929;28;20034;-74
2024/03/05 02:00:11;;;;;;;2.75;2.55;;;7.50;14.50;;;;;;4948290;28;20035;-75
2024/03/05 02:02:37;;;;;;;1.35;1.25;;;7.50;18.60;;;;;;4967646;28;20393;-75
2024/03/05 02:05:05;;;;;;;3.15;2.85;;;7.40;17.80;;;;;;4948094;28;20030;-75
2024/03/05 02:07:32;;;;;;;2.92;1.42;;;7.40;22.60;;;;;;4970756;28;20043;-75
2024/03/05 02:09:58;;;;;;;3.92;3.00;;;7.30;28.70;;;;;;4967099;28;20035;-75
2024/03/05 02:12:24;;;;;;;2.33;1.85;;;7.30;44.80;;;;;;4970614;28;20046;-75
2024/03/05 02:14:51;;;;;;;0.82;0.82;;;7.20;62.30;;;;;;4965962;28;20038;-75
2024/03/05 02:17:17;;;;;;;2.28;2.10;;;7.20;78.20;;;;;;4962720;28;20046;-75
2024/03/05 02:19:48;;;;;;;7.28;4.13;;;7.20;91.20;;;;;;4967455;28;20035;-76
2024/03/05 02:22:14;;;;;;;5.20;4.35;;;7.20;95.80;;;;;;4965600;28;20038;-76
2024/03/05 02:24:40;;;;;;;5.60;1.98;;;7.20;99.10;;;;;;4962411;28;20465;-76
2024/03/05 02:27:06;;;;;;;4.18;3.80;;;7.20;99.90;;;;;;4966316;28;20495;-75
2024/03/05 02:29:38;;;;;;;4.85;3.55;;;7.20;99.90;;;;;;4962744;28;20027;-76
2024/03/05 02:32:06;;;;;;;6.38;4.57;;;7.20;99.90;;;;;;4956668;28;20035;-75
2024/03/05 02:34:33;;;;;;;6.20;3.38;;;7.20;99.90;;;;;;4965088;28;20049;-76
2024/03/05 02:37:00;;;;;;;1.45;1.35;;;7.20;99.90;;;;;;4962468;28;20031;-76
2024/03/05 02:39:30;;;;;;;2.92;1.60;;;7.10;99.90;;;;;;4965987;28;20043;-76
2024/03/05 02:41:56;;;;;;;4.18;1.55;;;7.20;99.90;;;;;;4965847;28;20041;-76
2024/03/05 02:44:23;;;;;;;1.75;1.60;;;7.20;99.90;;;;;;4965897;28;20058;-76
2024/03/05 02:46:50;;;;;;;1.58;1.48;;;7.10;99.90;;;;;;4966918;28;20031;-76
2024/03/05 02:49:16;;;;;;;2.42;1.98;;;7.10;99.90;;;;;;4964219;28;20038;-76
2024/03/05 02:51:44;;;;;;;3.35;2.40;;;7.10;99.90;;;;;;4968206;28;20040;-76
2024/03/05 02:54:11;;;;;;;2.53;2.22;;;7.10;99.90;;;;;;4960950;28;20034;-76
2024/03/05 02:56:37;;;;;;;2.45;2.10;;;7.00;99.90;;;;;;4964081;28;20035;-76
2024/03/05 02:59:03;;;;;;;4.28;3.92;;;7.00;99.90;;;;;;4962067;28;20042;-76
2024/03/05 03:01:29;;;;;;;2.65;2.45;;;7.00;99.90;;;;;;4962288;28;20035;-75
2024/03/05 03:03:56;;;;;;;1.52;1.42;;;7.00;99.90;;;;;;4965966;28;20039;-76
2024/03/05 03:06:22;;;;;;;2.45;2.25;;;7.00;99.90;;;;;;4965734;28;20031;-76
2024/03/05 03:08:48;;;;;;;2.45;1.50;;;7.00;99.90;;;;;;4968229;28;20046;-75
2024/03/05 03:11:15;;;;;;;3.45;3.15;;;7.00;99.90;;;;;;4963216;28;20053;-76
2024/03/05 03:13:41;;;;;;;5.68;2.50;;;7.00;99.90;;;;;;4961915;28;20050;-75
2024/03/05 03:16:08;;;;;;;0.80;0.80;;;7.00;99.90;;;;;;4963662;28;20028;-76
2024/03/05 03:18:34;;;;;;;2.72;2.42;;;7.00;99.90;;;;;;4963490;28;20039;-75
2024/03/05 03:21:03;;;;;;;4.65;3.15;;;7.00;99.90;;;;;;4953441;28;20035;-76
2024/03/05 03:23:29;;;;;;;1.67;1.55;;;7.00;99.90;;;;;;4967848;28;20034;-76
2024/03/05 03:25:58;;;;;;;9.00;1.45;;;7.00;99.90;;;;;;4953859;28;20042;-76
2024/03/05 03:28:24;;;;;;;1.88;1.70;;;7.00;99.90;;;;;;4964421;28;20038;-76
2024/03/05 03:30:55;;;;;;;6.50;3.70;;;6.90;99.90;;;;;;4963905;28;20457;-76
2024/03/05 03:33:26;;;;;;;2.42;2.22;;;6.90;99.90;;;;;;4967607;28;20034;-76
2024/03/05 03:35:52;;;;;;;3.20;2.90;;;6.90;99.90;;;;;;4966796;28;20071;-75
2024/03/05 03:38:18;;;;;;;1.17;1.10;;;7.00;99.90;;;;;;4966934;28;20035;-75
2024/03/05 03:40:45;;;;;;;2.47;2.22;;;7.00;99.90;;;;;;4947106;28;20053;-76
2024/03/05 03:43:12;;;;;;;3.17;2.97;;;6.90;99.90;;;;;;4963151;28;20374;-76
2024/03/05 03:45:38;;;;;;;4.30;1.52;;;7.00;99.90;;;;;;4958713;28;20046;-76
2024/03/05 03:48:05;;;;;;;2.72;2.53;;;7.00;99.90;;;;;;4965586;28;20031;-76
2024/03/05 03:50:31;;;;;;;11.77;2.08;;;7.00;99.90;;;;;;4963613;28;20050;-76
2024/03/05 03:52:57;;;;;;;4.95;1.90;;;7.00;99.90;;;;;;4964376;28;20047;-76
2024/03/05 03:55:23;;;;;;;2.00;1.58;;;7.00;99.90;;;;;;4963627;28;20039;-76
2024/03/05 03:57:49;;;;;;;0.77;0.77;;;7.00;99.90;;;;;;4966667;28;20129;-75
2024/03/05 04:00:19;;;;;;;1.30;1.10;;;7.00;99.90;;;;;;4959769;28;20568;-76
2024/03/05 04:02:46;;;;;;;3.92;2.65;;;7.00;99.90;;;;;;4962057;28;20453;-76
2024/03/05 04:05:13;;;;;;;3.42;2.70;;;7.00;99.90;;;;;;4965101;28;20051;-76
2024/03/05 04:07:39;;;;;;;4.65;4.15;;;7.00;99.90;;;;;;4950507;28;20043;-76
2024/03/05 04:10:10;;;;;;;6.82;2.33;;;7.00;99.90;;;;;;4962226;28;20039;-76
2024/03/05 04:12:39;;;;;;;3.20;1.88;;;6.90;99.90;;;;;;4959816;28;20043;-75
2024/03/05 04:15:08;;;;;;;3.53;1.45;;;7.00;99.90;;;;;;4954896;28;20054;-76
2024/03/05 04:17:36;;;;;;;1.98;1.88;;;6.90;99.90;;;;;;4968080;28;20050;-75
2024/03/05 04:20:04;;;;;;;6.22;2.00;;;6.90;99.90;;;;;;4962322;28;20031;-75
2024/03/05 04:22:30;;;;;;;3.88;1.65;;;6.90;99.90;;;;;;4954975;28;20038;-76
2024/03/05 04:24:57;;;;;;;2.50;2.25;;;6.90;99.90;;;;;;4961762;28;20051;-75
2024/03/05 04:27:24;;;;;;;3.28;2.97;;;7.00;99.90;;;;;;4960512;28;20023;-76
2024/03/05 04:29:56;;;;;;;3.55;2.65;;;7.00;99.90;;;;;;4948882;28;20042;-76
2024/03/05 04:32:26;;;;;;;4.03;2.10;;;7.00;99.90;;;;;;4959757;28;20047;-76
2024/03/05 04:35:02;;;;;;;4.28;3.08;;;7.00;99.90;;;;;;4948872;28;20515;-76
2024/03/05 04:37:30;;;;;;;10.85;4.13;;;7.10;99.90;;;;;;4973972;28;20041;-76
2024/03/05 04:39:57;;;;;;;3.50;3.00;;;7.10;99.90;;;;;;4963463;28;20039;-76
2024/03/05 04:42:26;;;;;;;5.38;3.28;;;7.10;99.90;;;;;;4962352;28;20470;-76
2024/03/05 04:44:55;;;;;;;5.28;2.38;;;7.10;99.90;;;;;;4955160;28;20057;-75
2024/03/05 04:47:24;;;;;;;15.05;7.40;;;7.20;99.90;;;;;;4963438;28;20035;-75
2024/03/05 04:49:50;;;;;;;12.38;9.52;;;7.30;1.00;;;;;;4964436;28;20042;-75
2024/03/05 04:52:16;;;;;;;7.00;5.25;;;7.40;1.00;;;;;;4967198;28;20251;-75
2024/03/05 04:54:44;;;;;;;8.20;5.50;;;7.40;1.00;;;;;;4964117;28;20042;-75
2024/03/05 04:57:10;;;;;;;9.15;7.68;;;7.50;1.00;;;;;;4963202;28;20038;-75
2024/03/05 04:59:36;;;;;;;19.08;10.07;;;7.50;1.00;;;;;;4965083;28;20040;-76
2024/03/05 05:02:03;;;;;;;5.50;4.93;;;7.50;1.00;;;;;;4964405;28;20041;-75
2024/03/05 05:04:29;;;;;;;5.15;4.20;;;7.50;1.00;;;;;;4950650;28;20062;-76
2024/03/05 05:06:56;;;;;;;3.72;3.28;;;7.60;1.00;;;;;;4967292;28;20042;-76
2024/03/05 05:09:22;;;;;;;3.88;3.58;;;7.60;1.00;;;;;;4946227;28;20043;-76
2024/03/05 05:11:48;;;;;;;10.73;5.82;;;7.60;1.00;;;;;;4961721;28;20031;-76
2024/03/05 05:14:14;;;;;;;9.57;4.13;;;7.60;99.90;;;;;;4961673;28;20403;-76
2024/03/05 05:16:45;;;;;;;4.40;4.05;;;7.60;99.90;;;;;;4962357;28;20468;-76
2024/03/05 05:19:11;;;;;;;4.75;3.38;;;7.60;99.90;;;;;;4942164;28;20043;-76
2024/03/05 05:21:40;;;;;;;5.20;4.80;;;7.60;99.90;;;;;;4963917;28;20041;-76
2024/03/05 05:24:06;;;;;;;12.00;4.15;;;7.60;99.90;;;;;;4965190;28;20039;-76
2024/03/05 05:26:32;;;;;;;6.35;4.45;;;7.60;99.90;;;;;;4962235;28;20046;-76
2024/03/05 05:28:59;;;;;;;3.95;3.58;;;7.60;99.90;;;;;;4953077;28;20031;-76
2024/03/05 05:31:28;;;;;;;6.95;5.18;;;7.60;99.90;;;;;;4962807;28;20031;-77
2024/03/05 05:33:55;;;;;;;7.35;5.85;;;7.60;99.90;;;;;;4961502;28;20050;-76
2024/03/05 05:36:22;;;;;;;5.30;4.22;;;7.60;1.00;;;;;;4962987;28;20046;-76
2024/03/05 05:38:48;;;;;;;7.65;4.38;;;7.60;1.00;;;;;;4966357;28;20043;-76
2024/03/05 05:41:16;;;;;;;5.40;4.82;;;7.60;1.00;;;;;;4965290;28;20036;-76
2024/03/05 05:43:42;;;;;;;9.98;5.63;;;7.60;1.00;;;;;;4961299;28;20047;-76
2024/03/05 05:46:14;;;;;;;7.38;4.07;;;7.50;1.00;;;;;;4962106;28;20035;-76
2024/03/05 05:48:43;;;;;;;7.28;6.65;;;7.60;1.00;;;;;;4967347;28;20046;-76
2024/03/05 05:51:10;;;;;;;11.88;4.60;;;7.60;1.00;;;;;;4949461;28;20034;-76
2024/03/05 05:53:37;;;;;;;9.23;6.43;;;7.60;1.00;;;;;;4970494;28;20037;-76
2024/03/05 05:56:05;;;;;;;7.95;3.42;;;7.50;1.00;;;;;;4964468;28;20035;-76
2024/03/05 05:58:33;;;;;;;7.05;5.32;;;7.60;1.00;;;;;;4965788;28;20062;-76
2024/03/05 06:01:04;;;;;;;13.32;5.53;;;7.50;1.00;;;;;;4962161;28;20039;-77
2024/03/05 06:03:30;;;;;;;7.95;4.32;;;7.60;1.00;;;;;;4971489;28;20039;-76
2024/03/05 06:05:57;;;;;;;7.10;4.55;;;7.50;1.00;;;;;;4967227;28;20393;-76
2024/03/05 06:08:23;;;;;;;17.52;6.53;;;7.60;1.00;;;;;;4968744;28;20031;-76
2024/03/05 06:10:49;;;;;;;9.88;5.75;;;7.60;1.00;;;;;;4968039;28;20039;-76
2024/03/05 06:13:15;;;;;;;16.15;5.13;;;7.60;1.00;;;;;;4969254;28;20042;-76
2024/03/05 06:15:43;;;;;;;5.95;5.32;;;7.60;1.00;;;;;;4962877;28;20074;-76
2024/03/05 06:18:10;;;;;;;3.95;3.63;;;7.60;1.00;;;;;;4970577;28;20030;-76
2024/03/05 06:20:37;;;;;;;6.80;6.28;;;7.60;1.00;;;;;;4966857;28;20035;-77
2024/03/05 06:23:03;;;;;;;33.85;5.78;;;7.60;1.00;;;;;;4964359;28;20051;-76
2024/03/05 06:25:30;;;;;;;9.20;4.88;;;7.60;1.00;;;;;;4965082;28;20035;-76
2024/03/05 06:27:56;;;;;;;8.80;5.60;;;7.60;12.40;;;;;;4963532;28;20026;-76
2024/03/05 06:30:22;;;;;;;5.35;4.53;;;7.60;17.70;;;;;;4962816;28;20045;-76
2024/03/05 06:32:51;;;;;;;6.15;5.55;;;7.60;29.20;;;;;;4962598;28;20395;-76
2024/03/05 06:35:19;;;;;;;8.55;6.03;;;7.60;49.00;;;;;;4961005;28;20043;-76
2024/03/05 06:37:46;;;;;;;4.80;4.38;;;7.60;67.30;;;;;;4965850;28;20353;-76
2024/03/05 06:40:15;;;;;;;7.00;4.28;;;7.60;93.20;;;;;;4965098;28;20042;-76
2024/03/05 06:42:41;;;;;;;7.75;4.57;;;7.60;99.90;;;;;;4966972;28;20508;-76
2024/03/05 06:45:14;;;;;;;5.18;4.55;;;7.60;99.90;;;;;;4961548;28;20039;-76
2024/03/05 06:47:54;;;;;;;10.35;4.22;;;7.70;99.90;;;;;;4963394;28;20042;-76
2024/03/05 06:50:23;;;;;;;18.25;3.97;;;7.70;99.90;;;;;;4966706;28;20046;-76
2024/03/05 06:58:20;;;;;;;8.73;5.30;;;7.70;99.90;;;;;;4960521;28;20034;-76
2024/03/05 07:00:46;;;;;;;6.10;4.70;;;7.70;99.90;;;;;;4960761;28;20039;-76
2024/03/05 07:03:13;;;;;;;6.35;5.43;;;7.70;99.90;;;;;;4963264;28;20404;-76
2024/03/05 07:05:39;;;;;;;4.72;4.32;;;7.80;99.90;;;;;;4965104;28;20035;-76
2024/03/05 07:08:08;;;;;;;6.60;4.95;;;7.70;99.90;;;;;;4965580;28;20042;-76
2024/03/05 07:10:35;;;;;;;6.18;5.65;;;7.80;99.90;;;;;;4964464;28;20039;-76
2024/03/05 07:13:01;;;;;;;6.10;4.35;;;7.80;99.90;;;;;;4963687;28;20042;-77
2024/03/05 07:15:28;;;;;;;3.95;3.47;;;7.80;99.90;;;;;;4963861;28;20039;-76
2024/03/05 07:17:54;;;;;;;8.48;4.40;;;7.80;99.90;;;;;;4961893;28;20031;-76
2024/03/05 07:20:22;;;;;;;4.80;4.40;;;7.90;99.90;;;;;;4964872;28;20032;-76
2024/03/05 07:22:51;;;;;;;4.32;3.83;;;8.00;99.90;;;;;;4968375;28;20392;-77
2024/03/05 07:25:17;;;;;;;10.48;6.20;;;7.90;50.90;;;;;;4962422;28;20035;-78
2024/03/05 07:27:48;;;;;;;8.90;6.18;;;8.00;1.00;;;;;;4967109;28;20046;-78
2024/03/05 07:30:18;;;;;;;7.63;5.82;;;8.00;1.00;;;;;;4959628;28;20393;-78
2024/03/05 07:32:45;;;;;;;7.57;5.57;;;8.00;1.00;;;;;;4963995;28;20039;-79
2024/03/05 07:35:12;;;;;;;7.30;5.57;;;8.10;1.00;;;;;;4966092;28;20067;-77
2024/03/05 07:37:44;;;;;;;10.25;6.03;;;8.10;1.00;;;;;;4965805;28;20534;-78
2024/03/05 07:40:18;;;;;;;14.98;6.75;;;8.20;1.00;;;;;;4967445;28;20042;-78
2024/03/05 07:42:47;;;;;;;6.22;5.60;;;8.10;1.00;;;;;;4962192;28;20043;-79
2024/03/05 07:45:18;;;;;;;7.10;5.07;;;8.10;1.00;;;;;;4958565;28;20051;-78
2024/03/05 07:47:44;;;;;;;7.43;5.45;;;8.10;1.00;;;;;;4969478;28;20031;-79
2024/03/05 07:50:12;;;;;;;3.92;3.63;;;8.10;99.90;;;;;;4962009;28;20512;-78
2024/03/05 07:52:39;;;;;;;7.80;6.90;;;8.10;1.00;;;;;;4968002;28;20031;-79
2024/03/05 07:55:11;;;;;;;17.88;5.07;;;8.20;1.00;;;;;;4965152;28;20042;-77
2024/03/05 07:57:40;;;;;;;10.65;6.90;;;8.20;1.00;;;;;;4966052;28;20034;-78
2024/03/05 08:00:14;;;;;;;9.85;5.30;;;8.30;1.00;;;;;;4965530;28;20042;-78
2024/03/05 08:02:47;;;;;;;4.43;3.78;;;8.30;99.90;;;;;;4962518;28;20050;-78
2024/03/05 08:05:21;;;;;;;5.07;4.60;;;8.30;99.90;;;;;;4962819;28;20097;-78
2024/03/05 08:07:51;;;;;;;5.80;4.80;;;8.40;99.90;;;;;;4966057;28;20045;-77
2024/03/05 08:10:17;;;;;;;5.77;5.20;;;8.50;99.90;;;;;;4964762;28;20035;-77
2024/03/05 08:12:45;;;;;;;9.60;6.70;;;8.50;99.90;;;;;;4964844;28;20285;-78
2024/03/05 08:15:18;;;;;;;9.48;4.93;;;8.50;99.90;;;;;;4962551;28;20063;-77
2024/03/05 08:17:46;;;;;;;7.18;5.85;;;8.50;99.90;;;;;;4960966;28;20041;-78
2024/03/05 08:20:20;;;;;;;7.45;3.20;;;8.60;99.90;;;;;;4964995;28;20046;-78
2024/03/05 08:22:47;;;;;;;5.05;3.35;;;8.60;99.90;;;;;;4962899;28;20038;-79
2024/03/05 08:25:15;;;;;;;5.53;3.60;;;8.60;99.90;;;;;;4966371;28;20391;-77
2024/03/05 08:28:01;;;;;;;5.20;4.70;;;8.60;99.90;;;;;;4964348;28;20047;-77
2024/03/05 08:30:31;;;;;;;4.68;3.13;;;8.50;99.90;;;;;;4959586;28;20031;-77
2024/03/05 08:32:57;;;;;;;5.07;3.97;;;8.50;99.90;;;;;;4959544;28;20104;-78
2024/03/05 08:35:25;;;;;;;3.70;3.35;;;8.40;99.90;;;;;;4962405;28;20392;-80
2024/03/05 08:37:51;;;;;;;3.92;3.63;;;8.40;99.90;;;;;;4943221;28;20047;-80
2024/03/05 08:40:20;;;;;;;6.70;4.28;;;8.40;99.90;;;;;;4963748;28;20030;-79
2024/03/05 08:42:47;;;;;;;5.55;5.00;;;8.30;99.90;;;;;;4963812;28;20074;-77
2024/03/05 08:45:20;;;;;;;9.75;5.57;;;8.40;99.90;;;;;;4959602;28;20043;-77
2024/03/05 08:47:49;;;;;;;3.30;2.58;;;8.40;99.90;;;;;;4967662;28;20062;-78
2024/03/05 08:50:17;;;;;;;3.75;3.45;;;8.40;99.90;;;;;;4966115;28;20466;-78
2024/03/05 08:52:43;;;;;;;12.00;4.20;;;8.40;99.90;;;;;;4969326;28;20396;-80
2024/03/05 08:55:10;;;;;;;8.95;4.85;;;8.40;99.90;;;;;;4964773;28;20039;-78
2024/03/05 08:57:37;;;;;;;7.53;3.88;;;8.50;99.90;;;;;;4965391;28;20095;-80
2024/03/05 09:00:07;;;;;;;7.65;3.72;;;8.60;99.90;;;;;;4981063;28;20035;-78
2024/03/05 09:02:34;;;;;;;3.92;3.55;;;8.60;81.60;;;;;;4983459;28;20040;-79
2024/03/05 09:05:03;;;;;;;8.63;5.10;;;8.60;40.50;;;;;;4975513;28;20095;-79
2024/03/05 09:07:30;;;;;;;3.63;3.33;;;8.70;27.70;;;;;;4970057;28;20045;-79
2024/03/05 09:09:57;;;;;;;7.18;3.92;;;8.70;7.90;;;;;;4957566;28;20397;-79
2024/03/05 09:12:24;;;;;;;6.55;3.75;;;8.70;1.00;;;;;;4963337;28;20039;-80
2024/03/05 09:14:50;;;;;;;6.00;4.80;;;8.70;1.00;;;;;;4957942;28;20042;-80
2024/03/05 09:17:16;;;;;;;5.75;4.10;;;8.80;1.00;;;;;;4963394;28;20383;-80
2024/03/05 09:19:44;;;;;;;12.60;4.13;;;8.70;1.00;;;;;;4964123;28;20030;-80
2024/03/05 09:22:10;;;;;;;3.25;2.95;;;8.70;1.00;;;;;;4969463;28;20046;-79
2024/03/05 09:24:37;;;;;;;6.40;4.15;;;8.70;1.00;;;;;;4968676;28;20050;-78
2024/03/05 09:27:03;;;;;;;4.47;3.92;;;8.70;1.00;;;;;;4973119;28;20551;-79
2024/03/05 09:29:29;;;;;;;7.32;4.30;;;8.60;1.00;;;;;;4946911;28;20046;-79
2024/03/05 09:31:56;;;;;;;10.90;2.90;;;8.60;1.00;;;;;;4965801;28;20039;-78
2024/03/05 09:34:22;;;;;;;2.13;1.98;;;8.60;1.00;;;;;;4966466;28;20042;-79
2024/03/05 09:36:51;;;;;;;4.07;3.72;;;8.60;1.00;;;;;;4949856;28;20051;-80
2024/03/05 09:39:20;;;;;;;5.47;2.65;;;8.60;1.00;;;;;;4969282;28;20031;-81
2024/03/05 09:41:48;;;;;;;6.53;4.25;;;8.60;1.00;;;;;;4968903;28;20039;-79
2024/03/05 09:44:15;;;;;;;2.90;2.60;;;8.60;1.00;;;;;;4959466;28;20400;-79
2024/03/05 09:46:45;;;;;;;8.27;5.22;;;8.70;1.00;;;;;;4971799;28;20042;-79
2024/03/05 09:49:16;;;;;;;8.00;6.63;;;8.70;1.00;;;;;;4963952;28;20051;-79
2024/03/05 09:51:42;;;;;;;;;;;8.70;1.00;;;;;;4970914;28;20393;-79
2024/03/05 09:54:12;;;;;;;2.58;2.17;;;8.70;1.00;;;;;;4968047;28;19906;-79
2024/03/05 09:56:46;;;;;;;9.77;4.30;;;8.70;1.00;;;;;;4966486;28;20042;-79
2024/03/05 09:59:16;;;;;;;6.57;4.93;;;8.70;1.00;;;;;;4964073;28;20062;-79
2024/03/05 10:01:45;;;;;;;3.72;3.17;;;8.60;1.00;;;;;;4963687;28;20388;-79
2024/03/05 10:04:18;;;;;;;3.83;3.15;;;8.60;1.00;;;;;;4964915;28;20413;-78
2024/03/05 10:06:49;;;;;;;1.02;1.00;;;8.60;28.30;;;;;;4957393;28;20777;-79
2024/03/05 10:09:16;;;;;;;8.15;2.83;;;8.60;47.80;;;;;;4959701;28;20043;-80
2024/03/05 10:11:42;;;;;;;5.43;3.75;;;8.60;93.40;;;;;;4967067;28;20039;-79
2024/03/05 10:14:10;;;;;;;6.35;2.78;;;8.50;99.90;;;;;;4964926;28;20035;-80
2024/03/05 10:16:39;;;;;;;4.00;2.30;;;8.50;99.90;;;;;;4965133;28;20468;-80
2024/03/05 10:19:16;;;;;;;7.40;3.17;;;8.50;99.90;;;;;;4969268;28;20050;-80
2024/03/05 10:21:44;;;;;;;3.38;1.75;;;8.50;99.90;;;;;;4969943;28;20035;-80
2024/03/05 10:24:11;;;;;;;3.22;2.30;;;8.50;99.90;;;;;;4971629;28;20030;-80
2024/03/05 10:26:38;;;;;;;3.88;3.55;;;8.50;99.90;;;;;;4968604;28;20030;-80
2024/03/05 10:29:09;;;;;;;2.75;2.33;;;8.50;99.90;;;;;;4968253;28;20034;-80
2024/03/05 10:31:42;;;;;;;7.10;3.88;;;8.50;99.90;;;;;;4970833;28;20039;-80
2024/03/05 10:34:09;;;;;;;3.03;2.75;;;8.50;99.90;;;;;;4970248;28;20042;-80
2024/03/05 10:36:43;;;;;;;3.92;2.97;;;8.50;99.90;;;;;;4955336;28;20388;-80
2024/03/05 10:39:12;;;;;;;2.95;2.72;;;8.50;99.90;;;;;;4986477;28;20034;-80
2024/03/05 10:41:39;;;;;;;2.10;2.00;;;8.50;99.90;;;;;;4981840;28;20061;-79
2024/03/05 10:44:16;;;;;;;4.43;3.60;;;8.50;95.20;;;;;;4980260;28;20047;-79
2024/03/05 10:46:44;;;;;;;4.95;4.32;;;8.50;99.90;;;;;;4976278;28;20039;-79
2024/03/05 10:49:13;;;;;;;3.33;2.08;;;8.50;99.90;;;;;;4969897;28;20046;-80
2024/03/05 10:51:40;;;;;;;5.25;4.75;;;8.50;99.90;;;;;;4967102;28;20046;-80
2024/03/05 10:54:07;;;;;;;4.50;2.92;;;8.40;90.80;;;;;;4965594;28;20038;-80
2024/03/05 10:56:37;;;;;;;3.88;3.20;;;8.40;99.90;;;;;;4964652;28;20381;-78
2024/03/05 11:01:44;;;;;;;3.05;2.42;;;8.50;61.90;;;;;;4965129;28;20035;-80
2024/03/05 11:04:13;;;;;;;3.40;2.92;;;8.50;56.80;;;;;;4963815;28;20038;-80
2024/03/05 11:06:45;;;;;;;3.90;2.85;;;8.40;72.40;;;;;;4968605;28;20042;-80
2024/03/05 11:09:15;;;;;;;2.65;2.45;;;8.40;86.30;;;;;;4963778;28;20116;-79
2024/03/05 11:11:46;;;;;;;6.13;4.20;;;8.40;93.10;;;;;;4968077;28;20392;-80
2024/03/05 11:14:13;;;;;;;3.05;2.85;;;8.40;90.80;;;;;;4962535;28;20043;-80
2024/03/05 11:16:39;;;;;;;4.35;3.47;;;8.40;97.30;;;;;;4960434;28;20027;-80
2024/03/05 11:19:09;;;;;;;2.85;2.47;;;8.40;99.90;;;;;;4956350;28;20042;-80
2024/03/05 11:21:38;;;;;;;4.07;3.72;;;8.30;99.90;;;;;;4964013;28;20031;-80
2024/03/05 11:24:04;;;;;;;3.30;3.05;;;8.40;99.90;;;;;;4968772;28;20035;-80
2024/03/05 11:26:32;;;;;;;2.72;2.30;;;8.30;99.90;;;;;;4965059;28;20404;-80
2024/03/05 11:29:06;;;;;;;8.50;4.43;;;8.30;99.90;;;;;;4963784;28;20047;-80
2024/03/05 11:31:32;;;;;;;4.45;3.20;;;8.30;99.90;;;;;;4961408;28;20054;-80
2024/03/05 11:34:10;;;;;;;5.85;5.25;;;8.30;69.90;;;;;;4962779;28;20054;-80
2024/03/05 11:36:36;;;;;;;5.90;5.30;;;8.30;7.30;;;;;;4931485;28;20051;-79
2024/03/05 11:39:19;;;;;;;2.65;2.45;;;8.40;1.00;;;;;;4963307;28;20480;-79
2024/03/05 11:41:47;;;;;;;3.88;3.50;;;8.40;1.00;;;;;;4964896;28;20050;-80
2024/03/05 11:44:31;;;;;;;3.95;2.95;;;8.50;1.00;;;;;;4963843;28;20408;-80
2024/03/05 11:46:57;;;;;;;4.25;3.38;;;8.50;1.00;;;;;;4963327;28;20062;-80
2024/03/05 11:49:24;;;;;;;3.92;3.33;;;8.50;1.00;;;;;;4971155;28;20046;-79
2024/03/05 11:51:50;;;;;;;11.82;4.28;;;8.60;1.00;;;;;;4961344;28;20374;-79
2024/03/05 11:54:18;;;;;;;2.83;2.47;;;8.60;1.00;;;;;;4966016;28;20030;-78
2024/03/05 11:56:46;;;;;;;1.33;1.23;;;8.60;99.90;;;;;;4966310;28;20043;-79
2024/03/05 11:59:12;;;;;;;1.77;1.67;;;8.50;99.90;;;;;;4959715;28;20038;-80
2024/03/05 12:01:43;;;;;;;2.47;1.80;;;8.60;1.00;;;;;;4972696;28;20031;-79
2024/03/05 12:04:11;;;;;;;;;;;8.60;1.00;;;;;;4972815;28;20035;-80
2024/03/05 12:06:39;;;;;;;1.80;1.70;;;8.60;99.90;;;;;;4966616;28;20359;-80
2024/03/05 12:09:21;;;;;;;2.65;1.85;;;8.60;1.00;;;;;;4967293;28;20034;-80
2024/03/05 12:11:57;;;;;;;5.47;2.03;;;8.60;1.00;;;;;;4964476;28;20054;-80
2024/03/05 12:14:23;;;;;;;4.38;3.03;;;8.60;1.00;;;;;;4957302;28;20043;-80
2024/03/05 12:16:50;;;;;;;3.10;2.65;;;8.60;1.00;;;;;;4964964;28;20030;-80
2024/03/05 12:19:16;;;;;;;1.17;1.15;;;8.60;1.00;;;;;;4961086;28;20035;-81
2024/03/05 12:21:42;;;;;;;1.83;1.65;;;8.70;1.00;;;;;;4968019;28;20496;-81
2024/03/05 12:24:09;;;;;;;12.45;2.75;;;8.80;1.00;;;;;;4965283;28;20058;-81
2024/03/05 12:26:35;;;;;;;1.70;1.55;;;9.00;1.00;;;;;;4952973;28;20043;-81
2024/03/05 12:29:02;;;;;;;1.17;1.17;;;9.20;1.00;;;;;;4963717;28;20035;-81
2024/03/05 12:31:28;;;;;;;2.17;1.80;;;9.30;1.00;;;;;;4960291;28;20037;-80
2024/03/05 12:33:55;;;;;;;1.85;1.73;;;9.50;1.00;;;;;;4960970;28;20050;-81
2024/03/05 12:36:21;;;;;;;2.03;1.92;;;9.70;1.00;;;;;;4965512;28;20035;-81
2024/03/05 12:38:47;;;;;;;2.45;2.13;;;10.00;1.00;;;;;;4966705;28;20050;-81
2024/03/05 12:41:21;;;;;;;1.25;1.15;;;10.30;99.90;;;;;;4967780;28;20057;-80
2024/03/05 12:43:53;;;;;;;2.25;1.92;;;10.40;99.90;;;;;;4960203;28;20039;-80
2024/03/05 12:46:20;;;;;;;5.25;2.60;;;10.60;99.90;;;;;;4958939;28;20044;-78
2024/03/05 12:48:48;;;;;;;1.83;1.67;;;10.80;99.90;;;;;;4961709;28;20461;-80
2024/03/05 12:51:14;;;;;;;2.20;2.00;;;10.80;99.90;;;;;;4965108;28;20584;-80
2024/03/05 12:53:40;;;;;;;1.77;1.67;;;10.90;99.90;;;;;;4953660;28;20471;-79
2024/03/05 12:56:12;;;;;;;1.05;0.98;;;10.80;96.50;;;;;;4970815;28;20518;-80
2024/03/05 12:58:42;;;;;;;1.20;1.10;;;10.70;45.50;;;;;;4968011;28;20039;-79
2024/03/05 13:01:14;;;;;;;2.55;1.33;;;10.70;72.30;;;;;;4969631;28;20046;-79
2024/03/05 13:03:42;;;;;;;1.92;1.67;;;10.90;24.90;;;;;;4965717;28;20031;-79
2024/03/05 13:06:09;;;;;;;2.40;1.52;;;10.70;1.00;;;;;;4969804;28;20098;-79
2024/03/05 13:08:35;;;;;;;1.17;0.75;;;10.80;99.90;;;;;;4971292;28;20039;-78
2024/03/05 13:11:01;;;;;;;1.00;0.73;;;11.10;1.00;;;;;;4973345;28;20042;-80